Time;durP1;ratioP1;P1;durP2;ratioP2;P2;SDS_P1;SDS_P2;PMS_P1;PMS_P2;Temp;Humidity;BMP_temperature;BMP_pressure;BME280_temperature;BME280_humidity;BME280_pressure;Samples;Min_cycle;Max_cycle;Signal;HPM_P1;HPM_P2
2022/04/04 00:00:29;;;;;;;13.82;4.60;;;6.60;99.90;;;;;;5012802;28;20021;-71
2022/04/04 00:02:55;;;;;;;10.73;4.77;;;6.60;99.90;;;;;;5004979;28;20535;-64
2022/04/04 00:05:21;;;;;;;11.85;4.88;;;6.60;99.90;;;;;;5024997;28;20266;-65
2022/04/04 00:07:49;;;;;;;9.60;4.38;;;6.60;99.90;;;;;;5017417;28;20113;-64
2022/04/04 00:10:15;;;;;;;13.38;4.35;;;6.60;99.90;;;;;;5025661;28;20057;-65
2022/04/04 00:12:40;;;;;;;13.32;4.55;;;6.60;99.90;;;;;;5017684;28;20061;-64
2022/04/04 00:15:06;;;;;;;9.70;4.38;;;6.70;99.90;;;;;;5029157;28;20036;-65
2022/04/04 00:17:32;;;;;;;15.10;4.80;;;6.70;99.90;;;;;;5039055;28;20077;-65
2022/04/04 00:19:58;;;;;;;13.77;4.20;;;6.70;99.90;;;;;;5013130;28;20046;-65
2022/04/04 00:22:23;;;;;;;14.48;3.40;;;6.70;99.90;;;;;;5018720;28;20052;-64
2022/04/04 00:24:49;;;;;;;11.45;3.83;;;6.80;99.90;;;;;;5018506;28;20034;-65
2022/04/04 00:27:15;;;;;;;10.38;4.30;;;6.80;99.90;;;;;;5017799;28;20089;-63
2022/04/04 00:29:40;;;;;;;11.55;3.38;;;6.80;99.90;;;;;;5029119;28;20034;-65
2022/04/04 00:32:06;;;;;;;16.13;5.13;;;6.80;99.90;;;;;;5015901;28;20034;-65
2022/04/04 00:34:34;;;;;;;15.20;4.20;;;6.80;99.90;;;;;;5017461;28;20029;-65
2022/04/04 00:36:59;;;;;;;11.48;4.35;;;6.80;99.90;;;;;;5013652;28;20034;-65
2022/04/04 00:39:26;;;;;;;16.67;5.20;;;6.80;99.90;;;;;;5014078;28;20485;-64
2022/04/04 00:41:51;;;;;;;17.02;4.40;;;6.90;99.90;;;;;;5017159;28;20030;-65
2022/04/04 00:44:17;;;;;;;11.45;3.95;;;6.90;99.90;;;;;;5021829;28;20489;-64
2022/04/04 00:46:43;;;;;;;16.38;4.50;;;7.00;99.90;;;;;;5013868;28;20029;-64
2022/04/04 00:49:09;;;;;;;16.23;3.85;;;7.00;99.90;;;;;;5015157;28;20030;-65
2022/04/04 00:51:36;;;;;;;20.85;5.53;;;6.90;99.90;;;;;;5014966;28;20032;-64
2022/04/04 00:54:03;;;;;;;13.02;4.00;;;7.00;99.90;;;;;;5023642;28;20350;-64
2022/04/04 00:56:32;;;;;;;15.95;4.45;;;7.00;99.90;;;;;;5011269;28;20041;-64
2022/04/04 00:58:58;;;;;;;19.90;5.32;;;7.00;99.90;;;;;;5016666;28;20429;-64
2022/04/04 01:01:23;;;;;;;17.92;5.10;;;7.00;99.90;;;;;;5008132;28;20025;-64
2022/04/04 01:03:50;;;;;;;18.98;6.20;;;7.10;99.90;;;;;;5020046;28;20513;-65
2022/04/04 01:06:16;;;;;;;20.40;7.93;;;7.10;99.90;;;;;;5023107;28;20030;-64
2022/04/04 01:08:42;;;;;;;21.92;9.55;;;7.10;99.90;;;;;;5012809;28;20036;-64
2022/04/04 01:11:08;;;;;;;15.05;6.28;;;7.20;99.90;;;;;;5025349;28;20026;-65
2022/04/04 01:13:33;;;;;;;17.83;8.15;;;7.20;99.90;;;;;;5020441;28;20501;-64
2022/04/04 01:15:59;;;;;;;15.77;6.10;;;7.20;99.90;;;;;;5011834;28;20042;-64
2022/04/04 01:18:24;;;;;;;17.92;7.25;;;7.20;99.90;;;;;;5018672;28;20033;-64
2022/04/04 01:20:51;;;;;;;16.88;8.20;;;7.20;99.90;;;;;;5014349;28;20034;-64
2022/04/04 01:23:24;;;;;;;22.23;8.75;;;7.30;99.90;;;;;;5013730;28;20030;-65
2022/04/04 01:25:50;;;;;;;19.02;7.85;;;7.30;99.90;;;;;;5012026;28;20041;-65
2022/04/04 01:28:16;;;;;;;17.63;7.43;;;7.30;99.90;;;;;;5016151;28;20049;-65
2022/04/04 01:30:42;;;;;;;19.42;7.32;;;7.40;99.90;;;;;;5015729;28;20436;-64
2022/04/04 01:33:08;;;;;;;21.98;7.28;;;7.40;99.90;;;;;;5012192;28;20385;-65
2022/04/04 01:35:38;;;;;;;16.70;6.75;;;7.40;99.90;;;;;;5011349;28;20029;-65
2022/04/04 01:38:03;;;;;;;18.25;6.57;;;7.40;99.90;;;;;;5007359;28;20454;-65
2022/04/04 01:40:29;;;;;;;18.30;6.75;;;7.40;99.90;;;;;;5011652;28;20054;-65
2022/04/04 01:42:55;;;;;;;20.65;6.38;;;7.40;99.90;;;;;;5012734;28;20040;-65
2022/04/04 01:46:23;;;;;;;16.58;6.20;;;7.40;99.90;;;;;;5012907;28;20113;-64
2022/04/04 01:48:11;;;;;;;15.68;6.63;;;7.40;99.90;;;;;;5011043;28;20034;-64
2022/04/04 01:50:37;;;;;;;12.98;5.75;;;7.50;99.90;;;;;;5012404;28;20112;-65
2022/04/04 01:56:05;;;;;;;22.98;7.57;;;7.50;99.90;;;;;;4952585;29;20113;-65
2022/04/04 01:58:31;;;;;;;22.02;7.30;;;7.50;99.90;;;;;;4999051;28;20041;-64
2022/04/04 02:01:00;;;;;;;15.15;5.93;;;7.60;99.90;;;;;;5013247;28;20125;-65
2022/04/04 02:03:28;;;;;;;17.98;7.53;;;7.50;99.90;;;;;;5013207;28;20029;-65
2022/04/04 02:05:54;;;;;;;18.95;6.20;;;7.50;99.90;;;;;;5013133;28;20063;-65
2022/04/04 02:08:19;;;;;;;14.43;5.78;;;7.60;99.90;;;;;;5012820;28;20096;-65
2022/04/04 02:10:45;;;;;;;16.83;6.75;;;7.70;99.90;;;;;;5013136;28;20485;-65
2022/04/04 02:13:11;;;;;;;14.73;6.25;;;7.70;99.90;;;;;;5012938;28;20474;-64
2022/04/04 02:15:36;;;;;;;18.48;6.32;;;7.70;99.90;;;;;;5012261;28;20437;-64
2022/04/04 02:18:02;;;;;;;18.38;7.00;;;7.70;99.90;;;;;;5010599;28;20036;-63
2022/04/04 02:20:27;;;;;;;17.90;6.43;;;7.80;99.90;;;;;;5012579;28;20034;-64
2022/04/04 02:22:53;;;;;;;18.60;6.22;;;7.80;99.90;;;;;;5012039;28;20101;-63
2022/04/04 02:25:18;;;;;;;17.42;6.10;;;7.80;99.90;;;;;;5012182;28;20034;-64
2022/04/04 02:27:44;;;;;;;16.48;6.05;;;7.80;99.90;;;;;;5011810;28;20135;-64
2022/04/04 02:30:10;;;;;;;14.68;5.68;;;7.90;99.90;;;;;;5012239;28;20402;-64
2022/04/04 02:32:36;;;;;;;16.73;4.88;;;7.90;99.90;;;;;;5012287;28;20029;-64
2022/04/04 02:35:03;;;;;;;18.08;5.68;;;7.90;99.90;;;;;;5012502;28;20105;-64
2022/04/04 02:37:28;;;;;;;17.73;5.80;;;7.90;99.90;;;;;;5012204;28;20041;-64
2022/04/04 02:39:54;;;;;;;14.05;5.45;;;7.90;99.90;;;;;;5012597;28;20117;-64
2022/04/04 02:42:19;;;;;;;16.38;5.20;;;7.90;99.90;;;;;;5012740;28;20059;-64
2022/04/04 02:44:45;;;;;;;15.45;5.18;;;8.00;99.90;;;;;;5011934;28;20076;-64
2022/04/04 02:47:11;;;;;;;14.90;5.28;;;8.00;99.90;;;;;;5011587;28;20056;-64
2022/04/04 02:49:36;;;;;;;13.98;4.82;;;8.00;99.90;;;;;;5011506;28;20033;-64
2022/04/04 02:52:02;;;;;;;13.65;4.75;;;8.00;99.90;;;;;;5011852;28;20048;-65
2022/04/04 02:54:27;;;;;;;15.27;4.60;;;8.00;99.90;;;;;;5012392;28;20083;-65
2022/04/04 02:56:53;;;;;;;14.95;5.70;;;7.90;99.90;;;;;;5011175;28;20433;-65
2022/04/04 02:59:18;;;;;;;15.70;4.60;;;8.00;99.90;;;;;;5011912;28;20466;-64
2022/04/04 03:01:50;;;;;;;14.02;5.15;;;8.00;99.90;;;;;;5012048;28;20425;-64
2022/04/04 03:04:17;;;;;;;17.02;4.90;;;8.10;99.90;;;;;;5011467;28;20022;-64
2022/04/04 03:06:43;;;;;;;13.10;4.13;;;8.10;99.90;;;;;;5012216;28;20026;-64
2022/04/04 03:09:10;;;;;;;16.33;4.30;;;8.10;99.90;;;;;;5012203;28;20044;-64
2022/04/04 03:11:36;;;;;;;13.02;4.05;;;8.10;99.90;;;;;;5011723;28;20405;-63
2022/04/04 03:14:01;;;;;;;12.10;3.88;;;8.20;99.90;;;;;;5011644;28;20029;-65
2022/04/04 03:16:27;;;;;;;15.75;4.28;;;8.20;99.90;;;;;;5011762;28;20038;-64
2022/04/04 03:18:57;;;;;;;11.25;3.85;;;8.20;99.90;;;;;;5012138;28;20069;-62
2022/04/04 03:21:23;;;;;;;8.75;3.72;;;8.20;99.90;;;;;;5012001;28;20132;-63
2022/04/04 03:23:49;;;;;;;11.38;3.60;;;8.20;99.90;;;;;;5011073;28;20053;-64
2022/04/04 03:26:15;;;;;;;8.80;3.20;;;8.20;99.90;;;;;;5011944;28;20045;-64
2022/04/04 03:28:41;;;;;;;11.90;3.75;;;8.20;99.90;;;;;;5011803;28;20390;-65
2022/04/04 03:31:07;;;;;;;13.48;3.70;;;8.30;99.90;;;;;;5015609;28;20041;-65
2022/04/04 03:33:34;;;;;;;14.07;3.92;;;8.30;99.90;;;;;;5014584;28;20104;-64
2022/04/04 03:36:00;;;;;;;14.35;4.65;;;8.30;99.90;;;;;;5015670;28;20077;-65
2022/04/04 03:38:27;;;;;;;12.40;3.90;;;8.30;99.90;;;;;;5015281;28;20459;-65
2022/04/04 03:40:53;;;;;;;9.95;4.25;;;8.30;99.90;;;;;;5015383;28;20423;-64
2022/04/04 03:43:19;;;;;;;16.65;4.32;;;8.40;99.90;;;;;;5011285;28;20022;-64
2022/04/04 03:45:45;;;;;;;15.10;5.53;;;8.30;99.90;;;;;;5014028;28;20113;-64
2022/04/04 03:48:11;;;;;;;12.80;4.63;;;8.40;99.90;;;;;;5014488;28;20066;-63
2022/04/04 03:50:37;;;;;;;17.98;4.70;;;8.30;99.90;;;;;;5015174;28;20370;-64
2022/04/04 03:53:03;;;;;;;18.00;4.90;;;8.30;99.90;;;;;;5015354;28;20026;-64
2022/04/04 03:55:32;;;;;;;13.93;4.93;;;8.40;99.90;;;;;;5013641;28;20056;-64
2022/04/04 03:57:59;;;;;;;16.02;5.05;;;8.30;99.90;;;;;;5015148;28;20465;-64
2022/04/04 04:00:26;;;;;;;12.88;4.00;;;8.40;99.90;;;;;;5014690;28;20060;-64
2022/04/04 04:02:52;;;;;;;17.30;5.15;;;8.40;99.90;;;;;;5015213;28;20037;-64
2022/04/04 04:05:18;;;;;;;13.00;4.72;;;8.40;99.90;;;;;;5014332;28;20061;-64
2022/04/04 04:07:44;;;;;;;15.82;5.40;;;8.40;99.90;;;;;;5013835;28;20030;-64
2022/04/04 04:10:13;;;;;;;12.70;4.65;;;8.40;99.90;;;;;;5014247;28;20038;-64
2022/04/04 04:12:43;;;;;;;10.43;4.85;;;8.40;99.90;;;;;;5014870;28;20044;-64
2022/04/04 04:15:11;;;;;;;14.70;3.80;;;8.40;99.90;;;;;;5014389;28;20060;-64
2022/04/04 04:17:38;;;;;;;15.93;5.07;;;8.40;99.90;;;;;;5014138;28;20444;-64
2022/04/04 04:20:19;;;;;;;11.30;4.38;;;8.40;99.90;;;;;;5014378;28;20056;-64
2022/04/04 04:23:01;;;;;;;11.68;4.53;;;8.40;99.90;;;;;;5014923;28;20029;-64
2022/04/04 04:25:29;;;;;;;15.10;5.30;;;8.30;99.90;;;;;;5012068;28;20037;-64
2022/04/04 04:27:56;;;;;;;12.65;4.35;;;8.30;99.90;;;;;;4995387;28;20046;-64
2022/04/04 04:30:22;;;;;;;22.50;6.35;;;8.30;99.90;;;;;;5010506;28;20455;-64
2022/04/04 04:32:51;;;;;;;21.65;6.40;;;8.40;99.90;;;;;;5013227;28;20076;-64
2022/04/04 04:35:18;;;;;;;12.98;4.63;;;8.40;99.90;;;;;;5013448;28;20022;-64
2022/04/04 04:37:44;;;;;;;13.88;5.38;;;8.40;99.90;;;;;;5014787;28;20046;-64
2022/04/04 04:40:10;;;;;;;13.73;5.03;;;8.40;99.90;;;;;;5013400;28;20026;-64
2022/04/04 04:42:37;;;;;;;11.45;4.80;;;8.40;99.90;;;;;;5013342;28;20045;-64
2022/04/04 04:45:04;;;;;;;14.77;4.93;;;8.40;99.90;;;;;;5013614;28;20123;-64
2022/04/04 04:47:30;;;;;;;15.20;5.43;;;8.30;99.90;;;;;;5014418;28;20086;-64
2022/04/04 04:49:57;;;;;;;17.85;5.25;;;8.30;99.90;;;;;;5013884;28;20045;-64
2022/04/04 04:52:23;;;;;;;12.20;5.03;;;8.30;99.90;;;;;;5013386;28;20022;-64
2022/04/04 04:54:49;;;;;;;14.35;4.95;;;8.30;99.90;;;;;;5012918;28;20477;-64
2022/04/04 04:57:16;;;;;;;17.80;5.85;;;8.30;99.90;;;;;;5014069;28;20051;-65
2022/04/04 04:59:41;;;;;;;19.00;5.68;;;8.30;99.90;;;;;;5012843;28;20036;-65
2022/04/04 05:02:07;;;;;;;12.65;4.47;;;8.30;99.90;;;;;;5013170;28;20026;-64
2022/04/04 05:04:32;;;;;;;11.80;4.07;;;8.30;99.90;;;;;;5014306;28;20373;-65
2022/04/04 05:06:58;;;;;;;14.18;4.10;;;8.30;99.90;;;;;;5014572;28;20113;-65
2022/04/04 05:09:23;;;;;;;11.55;4.03;;;8.20;99.90;;;;;;5014039;28;20026;-65
2022/04/04 05:11:49;;;;;;;3.60;2.47;;;8.20;99.90;;;;;;5013644;28;20045;-65
2022/04/04 05:14:15;;;;;;;11.55;3.33;;;8.10;99.90;;;;;;5013792;28;20088;-65
2022/04/04 05:16:45;;;;;;;5.78;2.90;;;8.10;99.90;;;;;;5029162;28;20073;-65
2022/04/04 05:19:12;;;;;;;7.65;3.13;;;7.90;99.90;;;;;;5013644;28;20053;-65
2022/04/04 05:21:38;;;;;;;7.95;3.20;;;7.70;99.90;;;;;;5014051;28;20072;-65
2022/04/04 05:24:08;;;;;;;8.25;3.10;;;7.70;99.90;;;;;;5009294;28;20026;-64
2022/04/04 05:26:33;;;;;;;10.45;3.55;;;7.60;99.90;;;;;;5005570;28;20042;-65
2022/04/04 05:29:00;;;;;;;10.13;3.50;;;7.50;99.90;;;;;;5012153;28;20109;-66
2022/04/04 05:31:26;;;;;;;5.68;3.00;;;7.50;99.90;;;;;;5011153;28;20038;-66
2022/04/04 05:33:51;;;;;;;11.25;3.70;;;7.50;99.90;;;;;;5013120;28;20033;-65
2022/04/04 05:36:20;;;;;;;7.95;3.90;;;7.40;99.90;;;;;;5013174;28;20050;-65
2022/04/04 05:38:46;;;;;;;9.60;3.78;;;7.40;99.90;;;;;;5012987;28;20026;-65
2022/04/04 05:41:11;;;;;;;7.85;3.47;;;7.40;99.90;;;;;;5029329;28;20037;-64
2022/04/04 05:43:37;;;;;;;8.00;3.85;;;7.40;99.90;;;;;;5022858;28;20056;-64
2022/04/04 05:46:02;;;;;;;13.70;3.08;;;7.40;99.90;;;;;;5020876;28;20121;-65
2022/04/04 05:48:30;;;;;;;8.55;3.60;;;7.40;99.90;;;;;;5024867;28;20037;-64
2022/04/04 05:50:56;;;;;;;12.27;3.58;;;7.40;99.90;;;;;;5023679;28;20079;-65
2022/04/04 05:53:22;;;;;;;10.85;4.15;;;7.40;99.90;;;;;;5030079;28;20053;-65
2022/04/04 05:55:48;;;;;;;8.45;3.65;;;7.40;99.90;;;;;;5013516;28;20034;-65
2022/04/04 05:58:13;;;;;;;11.85;4.13;;;7.40;99.90;;;;;;5012676;28;20080;-65
2022/04/04 06:00:39;;;;;;;13.13;4.65;;;7.40;99.90;;;;;;5012752;28;20069;-67
2022/04/04 06:03:06;;;;;;;10.18;3.95;;;7.40;99.90;;;;;;5012701;28;20026;-66
2022/04/04 06:05:34;;;;;;;15.05;4.50;;;7.30;99.90;;;;;;5012134;28;20026;-66
2022/04/04 06:08:01;;;;;;;10.20;4.72;;;7.30;99.90;;;;;;5013240;28;20112;-66
2022/04/04 06:10:27;;;;;;;16.50;5.20;;;7.30;99.90;;;;;;5008272;28;20034;-65
2022/04/04 06:12:53;;;;;;;11.77;3.95;;;7.20;99.90;;;;;;4993218;28;20057;-64
2022/04/04 06:15:19;;;;;;;14.75;5.00;;;7.20;99.90;;;;;;5005774;28;20025;-65
2022/04/04 06:17:45;;;;;;;17.30;5.35;;;7.20;99.90;;;;;;5012697;28;20111;-65
2022/04/04 06:20:12;;;;;;;18.67;5.55;;;7.30;99.90;;;;;;5012400;28;20466;-65
2022/04/04 06:22:39;;;;;;;14.32;5.57;;;7.30;99.90;;;;;;5013031;28;20022;-64
2022/04/04 06:25:09;;;;;;;15.48;5.10;;;7.30;99.90;;;;;;5012841;28;20062;-65
2022/04/04 06:27:36;;;;;;;8.55;3.60;;;7.40;99.90;;;;;;5012330;28;20119;-64
2022/04/04 06:30:03;;;;;;;14.98;4.85;;;7.30;99.90;;;;;;5012674;28;20037;-65
2022/04/04 06:32:29;;;;;;;9.07;3.63;;;7.30;99.90;;;;;;5012017;28;20398;-65
2022/04/04 06:34:55;;;;;;;12.02;5.25;;;7.30;99.90;;;;;;5012748;28;20030;-65
2022/04/04 06:37:20;;;;;;;20.75;5.97;;;7.40;99.90;;;;;;5010952;28;20048;-65
2022/04/04 06:39:46;;;;;;;19.75;7.40;;;7.30;99.90;;;;;;5011040;28;20022;-64
2022/04/04 06:42:11;;;;;;;25.75;9.15;;;7.30;99.90;;;;;;5012195;28;20034;-64
2022/04/04 06:44:38;;;;;;;19.52;7.30;;;7.30;99.90;;;;;;5012435;28;20061;-65
2022/04/04 06:47:04;;;;;;;22.98;8.30;;;7.30;99.90;;;;;;5012097;28;20104;-66
2022/04/04 06:49:30;;;;;;;15.95;5.38;;;7.20;99.90;;;;;;5012763;28;20065;-65
2022/04/04 06:51:56;;;;;;;21.35;6.78;;;7.30;99.90;;;;;;5012393;28;20439;-65
2022/04/04 06:54:22;;;;;;;18.27;7.32;;;7.30;99.90;;;;;;5012611;28;20390;-66
2022/04/04 06:56:49;;;;;;;18.00;6.15;;;7.20;99.90;;;;;;5012378;28;20041;-65
2022/04/04 06:59:16;;;;;;;13.50;6.47;;;7.20;99.90;;;;;;5012417;28;20365;-66
2022/04/04 07:01:43;;;;;;;18.55;6.55;;;7.20;99.90;;;;;;5011537;28;20022;-66
2022/04/04 07:04:11;;;;;;;18.42;6.03;;;7.10;99.90;;;;;;5014919;28;20026;-66
2022/04/04 07:06:38;;;;;;;14.30;5.60;;;7.10;99.90;;;;;;5016212;28;20030;-66
2022/04/04 07:09:03;;;;;;;15.63;5.45;;;7.10;99.90;;;;;;5016529;28;20057;-66
2022/04/04 07:11:29;;;;;;;17.80;6.40;;;7.00;99.90;;;;;;5015759;28;20760;-67
2022/04/04 07:13:57;;;;;;;13.93;4.63;;;7.00;99.90;;;;;;5016335;28;20505;-66
2022/04/04 07:16:25;;;;;;;17.33;5.85;;;7.00;99.90;;;;;;5015711;28;20030;-65
2022/04/04 07:18:51;;;;;;;14.07;4.90;;;7.10;99.90;;;;;;5016566;28;20021;-67
2022/04/04 07:21:17;;;;;;;16.73;5.45;;;7.10;99.90;;;;;;5016074;28;20528;-64
2022/04/04 07:23:42;;;;;;;20.92;5.05;;;7.10;99.90;;;;;;5016064;28;20022;-66
2022/04/04 07:26:08;;;;;;;18.92;5.65;;;7.10;99.90;;;;;;5015225;28;20058;-65
2022/04/04 07:28:34;;;;;;;18.13;6.05;;;7.10;99.90;;;;;;5016268;28;20030;-65
2022/04/04 07:31:01;;;;;;;13.77;5.43;;;7.10;99.90;;;;;;5015231;28;20492;-66
2022/04/04 07:33:27;;;;;;;20.25;5.30;;;7.10;99.90;;;;;;5015077;28;20030;-66
2022/04/04 07:35:53;;;;;;;17.50;5.28;;;7.10;99.90;;;;;;5015318;28;20022;-66
2022/04/04 07:38:18;;;;;;;20.65;6.18;;;7.00;99.90;;;;;;5015451;28;20030;-65
2022/04/04 07:40:44;;;;;;;18.58;5.63;;;7.10;99.90;;;;;;5015322;28;20489;-66
2022/04/04 07:43:10;;;;;;;18.30;5.53;;;7.10;99.90;;;;;;5015726;28;20036;-65
2022/04/04 07:45:35;;;;;;;13.23;5.28;;;7.10;99.90;;;;;;5015122;28;20041;-66
2022/04/04 07:48:03;;;;;;;20.00;5.90;;;7.10;99.90;;;;;;5015694;28;20033;-66
2022/04/04 07:50:30;;;;;;;16.60;4.68;;;7.10;99.90;;;;;;5015388;28;20029;-66
2022/04/04 07:52:56;;;;;;;16.23;5.22;;;7.10;99.90;;;;;;5015678;28;20022;-65
2022/04/04 07:55:21;;;;;;;21.23;5.28;;;7.10;99.90;;;;;;5014192;28;20040;-65
2022/04/04 07:57:47;;;;;;;29.83;5.88;;;7.10;99.90;;;;;;5015302;28;20048;-65
2022/04/04 08:00:17;;;;;;;16.00;5.72;;;7.00;99.90;;;;;;5014820;28;20022;-67
2022/04/04 08:02:45;;;;;;;17.50;4.68;;;7.00;99.90;;;;;;5015562;28;20106;-65
2022/04/04 08:05:11;;;;;;;12.55;4.40;;;7.00;99.90;;;;;;5014923;28;20430;-66
2022/04/04 08:07:37;;;;;;;21.88;5.65;;;6.90;99.90;;;;;;5014908;28;20034;-65
2022/04/04 08:10:04;;;;;;;16.88;4.90;;;6.90;99.90;;;;;;5015003;28;20057;-66
2022/04/04 08:12:30;;;;;;;19.98;6.00;;;6.90;99.90;;;;;;5015295;28;20092;-66
2022/04/04 08:14:56;;;;;;;25.10;5.78;;;6.90;99.90;;;;;;5013896;28;20465;-66
2022/04/04 08:17:22;;;;;;;19.77;6.32;;;6.80;99.90;;;;;;5015177;28;20426;-66
2022/04/04 08:19:49;;;;;;;27.70;6.13;;;6.80;99.90;;;;;;5014844;28;20031;-67
2022/04/04 08:22:14;;;;;;;22.65;6.00;;;6.70;99.90;;;;;;5014866;28;20029;-66
2022/04/04 08:24:41;;;;;;;18.10;5.75;;;6.70;99.90;;;;;;5013135;28;20033;-65
2022/04/04 08:27:07;;;;;;;21.38;5.22;;;6.80;99.90;;;;;;5014298;28;20042;-68
2022/04/04 08:29:33;;;;;;;21.92;5.72;;;6.70;99.90;;;;;;5014261;28;20022;-66
2022/04/04 08:31:58;;;;;;;22.00;6.20;;;6.70;99.90;;;;;;5015097;28;20038;-66
2022/04/04 08:34:24;;;;;;;30.30;7.28;;;6.80;99.90;;;;;;5014254;28;20112;-68
2022/04/04 08:36:50;;;;;;;24.23;6.50;;;6.80;99.90;;;;;;5014431;28;20467;-66
2022/04/04 08:39:15;;;;;;;24.08;5.75;;;6.80;99.90;;;;;;5026526;28;20077;-66
2022/04/04 08:41:41;;;;;;;12.32;5.18;;;6.80;99.90;;;;;;5014432;28;20087;-66
2022/04/04 08:44:07;;;;;;;17.30;5.63;;;6.80;99.90;;;;;;5014559;28;20133;-67
2022/04/04 08:46:33;;;;;;;19.00;6.03;;;6.80;99.90;;;;;;5014715;28;20041;-66
2022/04/04 08:49:02;;;;;;;20.15;5.90;;;6.80;99.90;;;;;;5014326;28;20489;-65
2022/04/04 08:51:28;;;;;;;25.13;6.93;;;6.80;99.90;;;;;;5013950;28;20030;-66
2022/04/04 08:53:54;;;;;;;22.48;6.57;;;6.90;99.90;;;;;;5014249;28;20037;-67
2022/04/04 08:56:24;;;;;;;23.08;6.35;;;6.90;99.90;;;;;;5013611;28;20033;-67
2022/04/04 08:58:51;;;;;;;29.10;6.43;;;6.90;99.90;;;;;;5014216;28;20022;-67
2022/04/04 09:01:19;;;;;;;22.85;6.78;;;6.90;99.90;;;;;;5013389;28;20033;-66
2022/04/04 09:03:45;;;;;;;19.25;5.88;;;7.00;99.90;;;;;;5013904;28;20077;-67
2022/04/04 09:06:10;;;;;;;16.92;5.70;;;7.00;99.90;;;;;;5014268;28;20526;-65
2022/04/04 09:08:47;;;;;;;20.92;6.35;;;7.10;99.90;;;;;;5013575;28;20438;-66
2022/04/04 09:11:14;;;;;;;26.98;7.05;;;7.10;99.90;;;;;;5014265;28;20069;-67
2022/04/04 09:13:40;;;;;;;20.10;6.72;;;7.10;99.90;;;;;;5013664;28;20029;-66
2022/04/04 09:16:08;;;;;;;25.08;6.53;;;7.20;99.90;;;;;;5014224;28;20044;-67
2022/04/04 09:18:37;;;;;;;28.05;6.88;;;7.20;99.90;;;;;;5012774;28;20030;-66
2022/04/04 09:21:33;;;;;;;15.40;4.85;;;7.30;99.90;;;;;;5013711;28;20569;-66
2022/04/04 09:24:07;;;;;;;19.52;5.43;;;7.30;99.90;;;;;;4997312;28;20545;-66
2022/04/04 09:26:40;;;;;;;20.48;5.75;;;7.30;99.90;;;;;;4999916;28;20099;-66
2022/04/04 09:29:06;;;;;;;23.48;4.05;;;7.30;99.90;;;;;;5013622;28;20041;-65
2022/04/04 09:31:31;;;;;;;19.35;5.15;;;7.40;99.90;;;;;;5012410;28;20029;-65
2022/04/04 09:34:02;;;;;;;16.35;4.53;;;7.40;99.90;;;;;;5013381;28;20022;-67
2022/04/04 09:36:29;;;;;;;25.60;4.85;;;7.30;99.90;;;;;;5004374;28;20141;-66
2022/04/04 09:39:03;;;;;;;15.93;4.38;;;7.40;99.90;;;;;;5012568;28;20018;-66
2022/04/04 09:41:29;;;;;;;14.15;4.43;;;7.30;99.90;;;;;;5013242;28;20109;-67
2022/04/04 09:43:57;;;;;;;19.65;5.15;;;7.30;99.90;;;;;;5013419;28;20108;-66
2022/04/04 09:46:23;;;;;;;19.77;4.30;;;7.30;99.90;;;;;;5005356;28;20045;-66
2022/04/04 09:49:09;;;;;;;14.88;3.55;;;7.40;99.90;;;;;;4993539;28;20053;-69
2022/04/04 09:51:35;;;;;;;17.40;4.60;;;7.40;99.90;;;;;;5012599;28;20041;-68
2022/04/04 09:54:03;;;;;;;11.45;4.00;;;7.50;99.90;;;;;;5011764;28;20014;-70
2022/04/04 09:56:29;;;;;;;20.52;4.03;;;7.50;99.90;;;;;;5012948;28;20046;-66
2022/04/04 09:58:56;;;;;;;15.88;4.65;;;7.50;99.90;;;;;;5012503;28;20026;-69
2022/04/04 10:01:22;;;;;;;23.20;5.32;;;7.50;99.90;;;;;;5013278;28;20129;-69
2022/04/04 10:03:51;;;;;;;18.58;3.67;;;7.60;99.90;;;;;;5012254;28;20033;-67
2022/04/04 10:06:19;;;;;;;27.13;5.00;;;7.60;99.90;;;;;;5012773;28;20413;-67
2022/04/04 10:08:51;;;;;;;17.10;3.28;;;7.70;99.90;;;;;;5012935;28;20060;-68
2022/04/04 10:11:17;;;;;;;;;;;7.70;99.90;;;;;;5012304;28;20080;-68
2022/04/04 10:13:44;;;;;;;14.05;4.05;;;7.70;99.90;;;;;;5012836;28;19909;-68
2022/04/04 10:16:10;;;;;;;12.73;3.72;;;7.60;99.90;;;;;;5011804;28;20045;-68
2022/04/04 10:18:37;;;;;;;16.48;3.63;;;7.70;99.90;;;;;;5012864;28;20030;-69
2022/04/04 10:21:03;;;;;;;21.35;4.60;;;7.70;99.90;;;;;;5011921;28;20062;-69
2022/04/04 10:23:30;;;;;;;16.05;3.40;;;7.70;99.90;;;;;;5012614;28;20809;-69
2022/04/04 10:25:58;;;;;;;19.42;4.03;;;7.80;99.90;;;;;;5010703;28;20368;-67
2022/04/04 10:28:31;;;;;;;20.20;3.53;;;7.80;99.90;;;;;;5012808;28;20184;-68
2022/04/04 10:30:59;;;;;;;21.00;3.97;;;7.80;99.90;;;;;;5012340;28;20033;-69
2022/04/04 10:33:26;;;;;;;20.92;3.70;;;7.90;99.90;;;;;;5012590;28;20043;-70
2022/04/04 10:36:11;;;;;;;11.55;3.40;;;7.90;99.90;;;;;;5017662;28;20147;-68
2022/04/04 10:38:46;;;;;;;16.83;4.10;;;7.90;99.90;;;;;;5020443;28;20069;-67
2022/04/04 10:41:15;;;;;;;17.65;4.13;;;7.90;99.90;;;;;;5009930;28;20363;-67
2022/04/04 10:43:47;;;;;;;10.82;3.33;;;7.90;99.90;;;;;;5030410;28;20021;-69
2022/04/04 10:46:15;;;;;;;13.70;2.97;;;7.90;99.90;;;;;;5019760;28;20038;-69
2022/04/04 10:48:58;;;;;;;21.52;3.60;;;7.90;99.90;;;;;;5012573;28;20121;-70
2022/04/04 10:51:28;;;;;;;15.52;3.28;;;7.90;99.90;;;;;;5011772;28;20037;-68
2022/04/04 10:54:00;;;;;;;16.92;3.42;;;8.00;99.90;;;;;;5013183;28;20030;-67
2022/04/04 10:56:38;;;;;;;15.40;4.63;;;8.10;99.90;;;;;;5018981;28;20113;-70
2022/04/04 10:59:16;;;;;;;6.50;2.70;;;8.10;99.90;;;;;;5014037;28;20113;-67
2022/04/04 11:01:43;;;;;;;14.82;3.15;;;8.10;99.90;;;;;;5015544;28;20101;-68
2022/04/04 11:04:30;;;;;;;15.20;3.08;;;8.20;99.90;;;;;;5019201;28;20062;-69
2022/04/04 11:10:00;;;;;;;11.90;2.85;;;8.30;99.90;;;;;;5011811;28;20044;-68
2022/04/04 11:12:28;;;;;;;11.27;3.42;;;8.30;99.90;;;;;;5028459;28;20112;-69
2022/04/04 11:15:04;;;;;;;14.90;4.00;;;8.30;99.90;;;;;;5012995;28;20018;-71
2022/04/04 11:17:32;;;;;;;16.35;3.75;;;8.30;99.90;;;;;;5018386;28;20109;-70
2022/04/04 11:20:04;;;;;;;14.13;3.63;;;8.30;99.90;;;;;;5018647;28;20029;-70
2022/04/04 11:22:34;;;;;;;20.23;4.82;;;8.30;99.90;;;;;;5019830;28;20038;-67
2022/04/04 11:25:05;;;;;;;16.27;4.68;;;8.30;99.90;;;;;;5038373;28;20021;-71
2022/04/04 11:27:35;;;;;;;20.90;5.45;;;8.30;99.90;;;;;;5009779;28;20048;-70
2022/04/04 11:30:06;;;;;;;24.85;6.80;;;8.40;99.90;;;;;;5012910;28;20466;-68
2022/04/04 11:32:34;;;;;;;18.75;5.45;;;8.40;99.90;;;;;;5019056;28;20474;-70
2022/04/04 11:35:27;;;;;;;19.95;5.50;;;8.40;99.90;;;;;;5012788;28;20076;-68
2022/04/04 11:38:12;;;;;;;27.27;7.45;;;8.40;99.90;;;;;;5012714;28;20129;-69
2022/04/04 11:40:39;;;;;;;27.05;6.43;;;8.50;99.90;;;;;;4994028;28;20022;-69
2022/04/04 11:43:13;;;;;;;21.63;5.85;;;8.40;99.90;;;;;;5011429;28;20026;-69
2022/04/04 11:45:41;;;;;;;20.13;6.80;;;8.40;99.90;;;;;;5011851;28;20557;-69
2022/04/04 11:48:14;;;;;;;26.42;7.18;;;8.50;99.90;;;;;;5011093;28;20089;-68
2022/04/04 11:50:41;;;;;;;24.98;6.68;;;8.50;99.90;;;;;;4994663;28;20030;-72
2022/04/04 11:53:09;;;;;;;26.55;7.72;;;8.60;99.90;;;;;;5015632;28;20068;-68
2022/04/04 11:55:37;;;;;;;25.23;7.47;;;8.60;99.90;;;;;;5015322;28;20026;-69
2022/04/04 11:58:10;;;;;;;26.58;8.45;;;8.60;99.90;;;;;;5015280;28;20053;-71
2022/04/04 12:00:38;;;;;;;26.67;7.88;;;8.70;99.90;;;;;;5015024;28;20068;-71
2022/04/04 12:03:10;;;;;;;26.92;7.60;;;8.70;99.90;;;;;;5014482;28;20157;-71
2022/04/04 12:05:42;;;;;;;;;;;8.70;99.90;;;;;;5018262;28;20149;-68
2022/04/04 12:08:10;;;;;;;26.02;7.70;;;8.70;99.90;;;;;;5009765;28;19909;-68
2022/04/04 12:10:37;;;;;;;23.38;6.90;;;8.70;99.90;;;;;;5010662;28;20441;-72
2022/04/04 12:13:11;;;;;;;34.63;8.30;;;8.70;99.90;;;;;;5012928;28;20471;-70
2022/04/04 12:15:40;;;;;;;21.67;7.30;;;8.80;99.90;;;;;;5010590;28;20059;-70
2022/04/04 12:18:07;;;;;;;28.85;8.55;;;8.80;99.90;;;;;;5014201;28;20057;-67
2022/04/04 12:20:41;;;;;;;31.50;7.72;;;8.80;99.90;;;;;;5012139;28;20496;-69
2022/04/04 12:25:55;;;;;;;26.52;7.50;;;9.00;99.90;;;;;;5004667;28;20061;-72
2022/04/04 12:28:26;;;;;;;27.33;7.63;;;9.00;99.90;;;;;;5005596;28;20031;-70
2022/04/04 12:30:53;;;;;;;20.58;7.53;;;9.00;99.90;;;;;;5013111;28;20390;-69
2022/04/04 12:33:19;;;;;;;28.83;7.97;;;9.00;99.90;;;;;;5013665;28;20116;-73
2022/04/04 12:35:46;;;;;;;28.38;7.93;;;9.00;99.90;;;;;;5007084;28;20065;-72
2022/04/04 12:38:26;;;;;;;28.23;8.07;;;9.00;99.90;;;;;;5007741;28;20042;-70
2022/04/04 12:41:10;;;;;;;29.67;7.68;;;9.10;99.90;;;;;;5013970;28;20025;-70
2022/04/04 12:43:37;;;;;;;29.80;7.40;;;9.10;99.90;;;;;;5013727;28;20034;-70
2022/04/04 12:46:07;;;;;;;26.73;8.18;;;9.10;99.90;;;;;;5011196;28;20124;-70
2022/04/04 12:48:38;;;;;;;24.13;6.70;;;9.10;99.90;;;;;;5016719;28;20018;-71
2022/04/04 12:51:05;;;;;;;24.33;6.35;;;9.20;99.90;;;;;;5007396;28;20064;-68
2022/04/04 12:53:47;;;;;;;26.95;6.90;;;9.30;99.90;;;;;;5012843;28;20030;-70
2022/04/04 12:56:13;;;;;;;25.92;7.15;;;9.30;99.90;;;;;;5013579;28;20049;-68
2022/04/04 12:58:39;;;;;;;27.38;7.10;;;9.40;99.90;;;;;;5013629;28;20036;-68